createdAt,value
2022-10-01T00:02:06.217Z,92.00
2022-10-01T00:04:35.235Z,91.20
2022-10-01T00:07:04.605Z,91.30
2022-10-01T00:09:32.452Z,91.30
2022-10-01T00:11:59.777Z,91.10
2022-10-01T00:14:27.749Z,91.50
2022-10-01T00:16:54.592Z,91.60
2022-10-01T00:19:22.686Z,91.30
2022-10-01T00:21:49.635Z,90.60
2022-10-01T00:24:16.403Z,90.90
2022-10-01T00:26:45.380Z,91.00
2022-10-01T00:29:14.406Z,91.10
2022-10-01T00:31:41.982Z,91.50
2022-10-01T00:34:11.282Z,91.40
2022-10-01T00:36:38.001Z,91.50
2022-10-01T00:39:04.706Z,91.60
2022-10-01T00:41:33.943Z,91.80
2022-10-01T00:44:04.448Z,92.00
2022-10-01T00:46:39.286Z,92.40
2022-10-01T00:49:20.150Z,92.20
2022-10-01T00:51:50.747Z,91.90
2022-10-01T00:54:26.595Z,91.90
2022-10-01T00:56:55.427Z,92.10
2022-10-01T00:59:22.420Z,91.80
2022-10-01T01:01:49.308Z,91.90
2022-10-01T01:04:16.490Z,92.20
2022-10-01T01:06:47.341Z,92.00
2022-10-01T01:09:14.333Z,92.00
2022-10-01T01:11:57.658Z,92.10
2022-10-01T01:14:36.603Z,92.20
2022-10-01T01:17:12.107Z,92.20
2022-10-01T01:20:33.243Z,92.20
2022-10-01T01:23:24.555Z,92.50
2022-10-01T01:26:02.719Z,92.10
2022-10-01T01:28:40.302Z,91.90
2022-10-01T01:31:16.085Z,91.90
2022-10-01T01:33:46.361Z,91.90
2022-10-01T01:36:20.226Z,91.90
2022-10-01T01:38:51.925Z,92.00
2022-10-01T01:41:20.863Z,92.10
2022-10-01T01:43:52.108Z,91.80
2022-10-01T01:46:20.805Z,91.80
2022-10-01T01:48:51.454Z,91.90
2022-10-01T01:51:33.386Z,92.10
2022-10-01T01:54:00.618Z,92.20
2022-10-01T01:56:31.098Z,91.70
2022-10-01T01:59:01.003Z,91.90
2022-10-01T02:01:42.627Z,92.10
2022-10-01T02:04:36.115Z,91.70
2022-10-01T02:07:31.127Z,91.50
2022-10-01T02:10:16.312Z,91.60
2022-10-01T02:12:52.927Z,91.70
2022-10-01T02:15:28.767Z,92.00
2022-10-01T02:18:27.581Z,91.80
2022-10-01T02:21:10.367Z,91.50
2022-10-01T02:23:45.105Z,91.60
2022-10-01T02:26:19.246Z,92.00
2022-10-01T02:28:50.618Z,91.90
2022-10-01T02:31:19.050Z,91.90
2022-10-01T02:33:47.030Z,92.20
2022-10-01T02:36:16.236Z,92.50
2022-10-01T02:38:45.563Z,92.40
2022-10-01T02:41:16.334Z,92.30
2022-10-01T02:43:56.052Z,92.40
2022-10-01T02:46:52.491Z,92.50
2022-10-01T02:49:20.164Z,92.60
2022-10-01T02:52:11.388Z,92.60
2022-10-01T02:54:45.311Z,92.60
2022-10-01T02:57:28.882Z,92.70
2022-10-01T03:00:01.397Z,92.60
2022-10-01T03:02:31.333Z,92.80
2022-10-01T03:04:58.804Z,92.80
2022-10-01T03:07:27.598Z,92.60
2022-10-01T03:09:54.682Z,92.70
2022-10-01T03:12:23.314Z,92.50
2022-10-01T03:14:50.479Z,92.50
2022-10-01T03:17:17.909Z,92.50
2022-10-01T03:19:45.175Z,92.40
2022-10-01T03:22:14.730Z,92.30
2022-10-01T03:24:41.532Z,91.80
2022-10-01T03:27:08.238Z,92.10
2022-10-01T03:29:34.974Z,92.10
2022-10-01T03:32:01.830Z,92.10
2022-10-01T03:34:29.016Z,91.80
2022-10-01T03:36:55.726Z,92.30
2022-10-01T03:39:22.456Z,92.60
2022-10-01T03:41:49.803Z,92.80
2022-10-01T03:44:16.574Z,92.90
2022-10-01T03:46:43.804Z,92.90
2022-10-01T03:49:11.219Z,92.40
2022-10-01T03:51:38.180Z,92.50
2022-10-01T03:54:07.032Z,92.60
2022-10-01T03:56:34.604Z,92.70
2022-10-01T03:59:01.995Z,92.80
2022-10-01T04:01:28.904Z,93.10
2022-10-01T04:03:55.753Z,93.30
2022-10-01T04:06:22.523Z,93.00
2022-10-01T04:08:49.366Z,92.60
2022-10-01T04:11:16.521Z,92.50
2022-10-01T04:13:55.437Z,92.40
2022-10-01T04:16:23.202Z,92.60
2022-10-01T04:18:50.295Z,92.60
2022-10-01T04:21:17.187Z,92.60
2022-10-01T04:23:43.943Z,92.40
2022-10-01T04:26:11.008Z,92.10
2022-10-01T04:28:37.798Z,92.70
2022-10-01T04:31:23.328Z,92.80
2022-10-01T04:33:50.526Z,92.50
2022-10-01T04:36:17.906Z,92.60
2022-10-01T04:38:45.401Z,92.70
2022-10-01T04:41:13.745Z,92.80
2022-10-01T04:43:40.512Z,92.80
2022-10-01T04:46:07.249Z,93.10
2022-10-01T04:48:33.999Z,93.90
2022-10-01T04:51:00.743Z,94.20
2022-10-01T04:53:27.533Z,94.20
2022-10-01T04:55:54.274Z,94.30
2022-10-01T04:58:20.996Z,94.30
2022-10-01T05:00:49.273Z,94.10
2022-10-01T05:03:17.776Z,94.30
2022-10-01T05:05:44.792Z,94.40
2022-10-01T05:08:11.685Z,94.70
2022-10-01T05:10:38.634Z,94.70
2022-10-01T05:13:05.544Z,94.60
2022-10-01T05:15:32.989Z,94.50
2022-10-01T05:17:59.702Z,94.50
2022-10-01T05:20:27.763Z,94.70
2022-10-01T05:22:56.341Z,94.70
2022-10-01T05:25:23.569Z,94.70
2022-10-01T05:27:50.388Z,94.80
2022-10-01T05:30:23.919Z,94.80
2022-10-01T05:32:55.194Z,94.90
2022-10-01T05:35:22.202Z,95.10
2022-10-01T05:37:53.013Z,95.10
2022-10-01T05:40:19.968Z,95.10
2022-10-01T05:42:47.447Z,95.00
2022-10-01T05:45:14.263Z,94.90
2022-10-01T05:47:42.323Z,94.80
2022-10-01T05:50:09.730Z,94.70
2022-10-01T05:52:36.499Z,94.50
2022-10-01T05:55:03.425Z,94.50
2022-10-01T05:57:31.280Z,94.50
2022-10-01T05:59:58.292Z,94.30
2022-10-01T06:02:25.305Z,94.10
2022-10-01T06:04:52.134Z,93.90
2022-10-01T06:07:18.875Z,94.00
2022-10-01T06:09:45.663Z,93.40
2022-10-01T06:12:15.353Z,93.30
2022-10-01T06:14:44.448Z,92.90
2022-10-01T06:17:12.287Z,93.00
2022-10-01T06:19:39.004Z,93.00
2022-10-01T06:22:05.740Z,92.90
2022-10-01T06:24:32.571Z,93.00
2022-10-01T06:27:00.438Z,92.80
2022-10-01T06:29:27.148Z,92.90
2022-10-01T06:31:54.508Z,92.60
2022-10-01T06:34:21.267Z,92.50
2022-10-01T06:36:47.989Z,92.70
2022-10-01T06:39:14.744Z,92.70
2022-10-01T06:41:43.472Z,92.80
2022-10-01T06:44:10.585Z,93.00
2022-10-01T06:46:37.357Z,93.00
2022-10-01T06:49:04.159Z,92.90
2022-10-01T06:51:49.778Z,92.80
2022-10-01T06:54:18.244Z,92.60
2022-10-01T06:56:45.156Z,91.90
2022-10-01T06:59:11.932Z,91.90
2022-10-01T07:01:39.057Z,92.00
2022-10-01T07:04:06.082Z,91.60
2022-10-01T07:06:32.805Z,91.50
2022-10-01T07:09:00.118Z,91.60
2022-10-01T07:11:27.196Z,91.10
2022-10-01T07:13:54.819Z,91.00
2022-10-01T07:16:21.720Z,90.40
2022-10-01T07:18:48.542Z,90.50
2022-10-01T07:21:15.580Z,90.50
2022-10-01T07:23:43.189Z,90.30
2022-10-01T07:26:10.440Z,89.50
2022-10-01T07:28:37.314Z,89.10
2022-10-01T07:31:07.214Z,89.10
2022-10-01T07:33:34.025Z,89.40
2022-10-01T07:36:02.372Z,88.80
2022-10-01T07:38:29.689Z,88.60
2022-10-01T07:40:56.444Z,88.40
2022-10-01T07:43:23.207Z,88.20
2022-10-01T07:45:52.330Z,88.10
2022-10-01T07:48:19.276Z,87.30
2022-10-01T07:50:46.159Z,87.10
2022-10-01T07:53:13.602Z,86.20
2022-10-01T07:55:41.766Z,87.10
2022-10-01T07:58:09.609Z,86.80
2022-10-01T08:00:36.393Z,86.20
2022-10-01T08:03:03.482Z,87.00
2022-10-01T08:05:33.946Z,85.30
2022-10-01T08:08:02.787Z,86.00
2022-10-01T08:10:30.387Z,84.80
2022-10-01T08:13:01.767Z,85.30
2022-10-01T08:15:29.167Z,85.10
2022-10-01T08:17:55.866Z,85.00
2022-10-01T08:20:22.671Z,84.10
2022-10-01T08:22:49.465Z,84.80
2022-10-01T08:25:16.367Z,83.10
2022-10-01T08:27:43.278Z,85.20
2022-10-01T08:30:10.476Z,83.50
2022-10-01T08:32:37.222Z,84.30
2022-10-01T08:35:04.798Z,83.00
2022-10-01T08:37:31.556Z,82.10
2022-10-01T08:39:58.325Z,83.50
2022-10-01T08:42:45.985Z,81.80
2022-10-01T08:45:40.729Z,81.50
2022-10-01T08:48:28.506Z,82.70
2022-10-01T08:51:07.989Z,82.00
2022-10-01T08:53:49.315Z,82.90
2022-10-01T08:56:27.709Z,82.60
2022-10-01T08:58:59.047Z,82.40
2022-10-01T09:01:27.148Z,82.20
2022-10-01T09:03:54.461Z,83.80
2022-10-01T09:06:25.449Z,83.30
2022-10-01T09:09:45.444Z,81.90
2022-10-01T09:12:18.097Z,82.40
2022-10-01T09:14:51.355Z,82.80
2022-10-01T09:17:37.778Z,82.20
2022-10-01T09:20:26.893Z,82.40
2022-10-01T09:23:17.872Z,83.50
2022-10-01T09:25:49.415Z,81.40
2022-10-01T09:28:19.299Z,82.60
2022-10-01T09:31:06.584Z,82.00
2022-10-01T09:33:40.883Z,80.40
2022-10-01T09:36:26.317Z,81.90
2022-10-01T09:39:13.657Z,82.00
2022-10-01T09:41:40.814Z,81.30
2022-10-01T09:44:18.924Z,81.50
2022-10-01T09:46:47.087Z,82.70
2022-10-01T09:49:36.244Z,81.70
2022-10-01T09:52:27.040Z,81.80
2022-10-01T09:55:02.314Z,82.20
2022-10-01T09:57:40.658Z,81.40
2022-10-01T10:00:17.333Z,81.50
2022-10-01T10:02:49.252Z,82.20
2022-10-01T10:05:19.437Z,82.10
2022-10-01T10:07:52.140Z,81.50
2022-10-01T10:10:31.040Z,82.60
2022-10-01T10:13:01.591Z,82.50
2022-10-01T10:15:32.474Z,83.10
2022-10-01T10:18:13.079Z,82.10
2022-10-01T10:20:43.235Z,83.00
2022-10-01T10:23:21.647Z,82.90
2022-10-01T10:26:03.010Z,84.50
2022-10-01T10:28:44.122Z,84.60
2022-10-01T10:31:16.676Z,84.90
2022-10-01T10:33:57.863Z,85.00
2022-10-01T10:36:33.306Z,85.80
2022-10-01T10:39:00.727Z,84.90
2022-10-01T10:41:29.673Z,85.40
2022-10-01T10:44:01.405Z,85.70
2022-10-01T10:46:35.644Z,87.40
2022-10-01T10:49:21.685Z,86.90
2022-10-01T10:51:55.964Z,88.00
2022-10-01T10:54:32.712Z,88.30
2022-10-01T10:57:02.381Z,88.10
2022-10-01T10:59:32.115Z,88.80
2022-10-01T11:02:04.670Z,88.40
2022-10-01T11:04:50.008Z,88.00
2022-10-01T11:07:22.675Z,88.70
2022-10-01T11:10:03.355Z,89.40
2022-10-01T11:13:06.623Z,89.10
2022-10-01T11:15:56.750Z,89.20
2022-10-01T11:18:48.371Z,89.40
2022-10-01T11:21:36.394Z,90.30
2022-10-01T11:24:32.884Z,90.10
2022-10-01T11:27:10.341Z,91.00
2022-10-01T11:29:43.360Z,90.40
2022-10-01T11:32:25.868Z,90.30
2022-10-01T11:34:58.409Z,90.70
2022-10-01T11:37:41.634Z,90.90
2022-10-01T11:40:27.066Z,90.90
2022-10-01T11:42:59.649Z,91.10
2022-10-01T11:45:32.231Z,91.40
2022-10-01T11:48:07.934Z,91.10
2022-10-01T11:50:43.649Z,91.30
2022-10-01T11:53:33.301Z,91.50
2022-10-01T11:56:20.762Z,91.50
2022-10-01T11:59:12.134Z,90.90
2022-10-01T12:02:08.156Z,91.10
2022-10-01T12:05:27.397Z,90.70
2022-10-01T12:08:21.067Z,91.30
2022-10-01T12:10:55.443Z,91.10
2022-10-01T12:13:28.014Z,90.70
2022-10-01T12:16:15.438Z,90.60
2022-10-01T12:19:00.723Z,91.20
2022-10-01T12:21:33.934Z,91.00
2022-10-01T12:24:12.875Z,91.00
2022-10-01T12:27:16.056Z,91.20
2022-10-01T12:30:05.527Z,91.10
2022-10-01T12:32:38.358Z,90.90
2022-10-01T12:35:47.944Z,91.00
2022-10-01T12:38:40.568Z,90.60
2022-10-01T12:41:34.624Z,91.30
2022-10-01T12:44:09.919Z,91.70
2022-10-01T12:46:49.722Z,91.50
2022-10-01T12:49:28.244Z,91.70
2022-10-01T12:52:16.153Z,90.90
2022-10-01T12:54:42.977Z,91.80
2022-10-01T12:57:17.022Z,90.40
2022-10-01T13:00:10.837Z,91.60
2022-10-01T13:03:02.951Z,91.20
2022-10-01T13:05:35.591Z,91.30
2022-10-01T13:08:08.025Z,91.30
2022-10-01T13:10:59.835Z,91.50
2022-10-01T13:13:33.417Z,91.10
2022-10-01T13:16:16.744Z,90.00
2022-10-01T13:19:05.617Z,90.40
2022-10-01T13:21:57.403Z,90.00
2022-10-01T13:24:36.282Z,89.90
2022-10-01T13:27:22.527Z,89.20
2022-10-01T13:30:18.418Z,88.80
2022-10-01T13:32:54.863Z,88.80
2022-10-01T13:35:32.888Z,88.40
2022-10-01T13:38:29.179Z,89.20
2022-10-01T13:41:03.030Z,89.00
2022-10-01T13:43:31.489Z,89.40
2022-10-01T13:46:10.604Z,88.60
2022-10-01T13:48:46.442Z,89.90
2022-10-01T13:51:14.768Z,89.10
2022-10-01T13:53:41.485Z,89.60
2022-10-01T13:56:12.165Z,90.10
2022-10-01T13:58:44.391Z,89.30
2022-10-01T14:01:23.671Z,89.20
2022-10-01T14:03:55.882Z,89.60
2022-10-01T14:06:34.881Z,89.30
2022-10-01T14:09:10.825Z,89.70
2022-10-01T14:11:58.125Z,89.00
2022-10-01T14:14:43.423Z,88.60
2022-10-01T14:17:11.562Z,88.70
2022-10-01T14:19:47.029Z,89.20
2022-10-01T14:22:32.537Z,89.00
2022-10-01T14:25:14.085Z,88.80
2022-10-01T14:28:07.833Z,89.00
2022-10-01T14:30:45.679Z,88.30
2022-10-01T14:33:34.164Z,88.40
2022-10-01T14:36:17.538Z,88.70
2022-10-01T14:38:44.375Z,88.80
2022-10-01T14:41:23.798Z,89.20
2022-10-01T14:43:50.555Z,89.80
2022-10-01T14:46:18.449Z,89.50
2022-10-01T14:48:55.974Z,88.90
2022-10-01T14:51:26.157Z,89.20
2022-10-01T14:53:54.550Z,89.70
2022-10-01T14:56:22.850Z,90.00
2022-10-01T14:59:01.758Z,89.60
2022-10-01T15:01:30.392Z,89.60
2022-10-01T15:03:57.386Z,89.50
2022-10-01T15:06:30.045Z,89.30
2022-10-01T15:09:12.408Z,90.10
2022-10-01T15:11:44.315Z,89.80
2022-10-01T15:14:20.324Z,89.50
2022-10-01T15:16:47.561Z,89.20
2022-10-01T15:19:18.197Z,89.30
2022-10-01T15:21:54.195Z,89.50
2022-10-01T15:24:33.696Z,89.50
2022-10-01T15:27:01.679Z,89.90
2022-10-01T15:29:28.695Z,89.60
2022-10-01T15:31:57.510Z,89.30
2022-10-01T15:34:26.252Z,89.40
2022-10-01T15:36:54.236Z,89.40
2022-10-01T15:39:35.712Z,89.30
2022-10-01T15:42:28.190Z,89.20
2022-10-01T15:45:07.330Z,89.70
2022-10-01T15:47:36.168Z,89.20
2022-10-01T15:50:12.154Z,89.20
2022-10-01T15:52:51.789Z,89.50
2022-10-01T15:55:26.486Z,89.70
2022-10-01T15:58:05.165Z,89.40
2022-10-01T16:00:39.979Z,89.70
2022-10-01T16:03:19.671Z,89.80
2022-10-01T16:05:48.076Z,89.70
2022-10-01T16:08:21.814Z,90.20
2022-10-01T16:11:13.570Z,90.90
2022-10-01T16:13:44.776Z,91.00
2022-10-01T16:16:16.388Z,91.00
2022-10-01T16:18:43.427Z,90.70
2022-10-01T16:21:11.337Z,90.80
2022-10-01T16:23:47.833Z,91.00
2022-10-01T16:26:34.259Z,90.90
2022-10-01T16:29:01.095Z,91.20
2022-10-01T16:31:29.725Z,91.00
2022-10-01T16:33:56.474Z,90.80
2022-10-01T16:36:26.568Z,90.90
2022-10-01T16:38:53.579Z,90.90
2022-10-01T16:41:24.220Z,90.70
2022-10-01T16:43:52.839Z,90.70
2022-10-01T16:46:19.647Z,90.50
2022-10-01T16:48:51.581Z,90.70
2022-10-01T16:51:19.378Z,90.60
2022-10-01T16:53:46.997Z,90.50
2022-10-01T16:56:14.192Z,90.60
2022-10-01T16:58:44.280Z,90.70
2022-10-01T17:01:14.709Z,90.70
2022-10-01T17:03:41.981Z,90.80
2022-10-01T17:06:09.022Z,90.70
2022-10-01T17:08:35.834Z,90.80
2022-10-01T17:11:02.994Z,90.20
2022-10-01T17:13:32.707Z,90.10
2022-10-01T17:16:00.503Z,90.40
2022-10-01T17:18:27.975Z,90.40
2022-10-01T17:20:56.031Z,90.30
2022-10-01T17:23:23.501Z,90.30
2022-10-01T17:25:50.863Z,90.10
2022-10-01T17:28:20.047Z,90.40
2022-10-01T17:30:48.273Z,90.20
2022-10-01T17:33:19.058Z,90.10
2022-10-01T17:35:51.597Z,90.40
2022-10-01T17:38:19.170Z,90.30
2022-10-01T17:40:46.230Z,90.20
2022-10-01T17:43:15.099Z,90.40
2022-10-01T17:45:43.220Z,90.20
2022-10-01T17:48:10.219Z,90.10
2022-10-01T17:50:43.380Z,90.00
2022-10-01T17:53:11.447Z,90.10
2022-10-01T17:55:41.969Z,90.10
2022-10-01T17:58:08.710Z,90.20
2022-10-01T18:00:35.630Z,90.30
2022-10-01T18:03:02.763Z,90.40
2022-10-01T18:05:29.519Z,90.50
2022-10-01T18:07:56.277Z,90.50
2022-10-01T18:10:22.960Z,90.30
2022-10-01T18:12:49.720Z,90.50
2022-10-01T18:15:18.595Z,90.30
2022-10-01T18:17:51.476Z,90.40
2022-10-01T18:20:20.835Z,90.20
2022-10-01T18:22:47.831Z,90.30
2022-10-01T18:25:16.007Z,90.30
2022-10-01T18:27:43.543Z,90.30
2022-10-01T18:30:10.807Z,90.30
2022-10-01T18:32:44.704Z,90.50
2022-10-01T18:35:30.408Z,90.40
2022-10-01T18:38:02.727Z,90.40
2022-10-01T18:40:35.618Z,90.40
2022-10-01T18:43:17.470Z,90.60
2022-10-01T18:45:44.330Z,90.60
2022-10-01T18:48:37.787Z,90.50
2022-10-01T18:51:24.739Z,90.40
2022-10-01T18:54:18.481Z,90.20
2022-10-01T18:57:04.078Z,90.40
2022-10-01T19:00:12.287Z,90.30
2022-10-01T19:02:38.960Z,90.30
2022-10-01T19:05:43.587Z,90.10
2022-10-01T19:08:36.718Z,90.10
2022-10-01T19:11:03.515Z,89.90
2022-10-01T19:13:43.357Z,89.80
2022-10-01T19:16:45.612Z,89.70
2022-10-01T19:19:15.455Z,89.90
2022-10-01T19:22:10.687Z,90.00
2022-10-01T19:25:22.063Z,89.60
2022-10-01T19:28:00.854Z,89.70
2022-10-01T19:30:37.738Z,89.40
2022-10-01T19:33:11.063Z,89.70
2022-10-01T19:35:44.121Z,89.80
2022-10-01T19:38:37.422Z,90.10
2022-10-01T19:41:43.050Z,90.30
2022-10-01T19:44:31.646Z,89.70
2022-10-01T19:47:14.597Z,87.50
2022-10-01T19:49:42.552Z,87.70
2022-10-01T19:52:16.622Z,88.80
2022-10-01T19:54:48.512Z,88.40
2022-10-01T19:57:24.905Z,89.20
2022-10-01T19:59:55.759Z,89.70
2022-10-01T20:02:38.435Z,90.10
2022-10-01T20:05:09.728Z,91.30
2022-10-01T20:07:45.439Z,91.90
2022-10-01T20:10:31.115Z,92.40
2022-10-01T20:13:35.885Z,92.60
2022-10-01T20:16:18.137Z,92.90
2022-10-01T20:19:04.890Z,93.30
2022-10-01T20:21:31.653Z,93.30
2022-10-01T20:24:17.101Z,93.20
2022-10-01T20:26:54.997Z,93.60
2022-10-01T20:29:47.437Z,93.80
2022-10-01T20:32:26.773Z,93.80
2022-10-01T20:35:00.496Z,93.80
2022-10-01T20:37:52.319Z,93.70
2022-10-01T20:40:30.224Z,93.90
2022-10-01T20:43:12.270Z,93.80
2022-10-01T20:45:40.691Z,93.90
2022-10-01T20:48:16.639Z,94.10
2022-10-01T20:50:55.426Z,94.20
2022-10-01T20:53:48.695Z,94.00
2022-10-01T20:56:25.305Z,93.50
2022-10-01T20:59:13.360Z,93.30
2022-10-01T21:01:53.257Z,92.40
2022-10-01T21:04:27.982Z,92.20
2022-10-01T21:07:01.141Z,92.50
2022-10-01T21:09:46.015Z,92.80
2022-10-01T21:12:22.633Z,93.40
2022-10-01T21:14:53.688Z,93.50
2022-10-01T21:17:56.627Z,93.50
2022-10-01T21:20:40.896Z,93.70
2022-10-01T21:23:45.678Z,93.70
2022-10-01T21:26:13.280Z,93.80
2022-10-01T21:28:58.435Z,93.90
2022-10-01T21:31:34.939Z,93.80
2022-10-01T21:34:01.966Z,93.90
2022-10-01T21:36:55.748Z,93.70
2022-10-01T21:39:32.732Z,93.50
2022-10-01T21:42:34.959Z,93.70
2022-10-01T21:45:31.286Z,93.70
2022-10-01T21:48:13.432Z,93.90
2022-10-01T21:50:54.137Z,93.90
2022-10-01T21:53:33.223Z,94.00
2022-10-01T21:56:11.942Z,93.90
2022-10-01T21:59:16.869Z,93.90
2022-10-01T22:02:04.757Z,93.90
2022-10-01T22:04:40.597Z,94.10
2022-10-01T22:07:28.148Z,94.20
2022-10-01T22:10:08.143Z,94.30
2022-10-01T22:12:38.177Z,94.30
2022-10-01T22:15:19.467Z,94.30
2022-10-01T22:17:47.714Z,94.30
2022-10-01T22:20:16.195Z,94.10
2022-10-01T22:22:43.550Z,93.80
2022-10-01T22:25:10.369Z,93.90
2022-10-01T22:28:08.193Z,93.90
2022-10-01T22:30:38.716Z,93.90
2022-10-01T22:33:32.968Z,93.80
2022-10-01T22:36:18.222Z,93.80
2022-10-01T22:38:53.827Z,93.90
2022-10-01T22:41:20.549Z,94.00
2022-10-01T22:43:47.610Z,93.80
2022-10-01T22:46:29.644Z,93.70
2022-10-01T22:49:04.438Z,93.50
2022-10-01T22:51:40.119Z,93.30
2022-10-01T22:54:13.656Z,93.30
2022-10-01T22:56:54.005Z,93.40
2022-10-01T22:59:43.057Z,93.40
2022-10-01T23:02:39.524Z,93.60
2022-10-01T23:05:25.346Z,93.60
2022-10-01T23:08:24.122Z,93.90
2022-10-01T23:10:56.694Z,94.00
2022-10-01T23:13:50.445Z,94.00
2022-10-01T23:16:47.512Z,94.00
2022-10-01T23:19:46.108Z,94.20
2022-10-01T23:22:45.685Z,94.30
2022-10-01T23:25:17.956Z,94.50
2022-10-01T23:28:01.357Z,94.80
2022-10-01T23:30:45.249Z,94.90
2022-10-01T23:33:38.197Z,94.90
2022-10-01T23:36:41.762Z,95.00
2022-10-01T23:39:30.299Z,95.10
2022-10-01T23:42:20.209Z,95.20
2022-10-01T23:44:56.440Z,95.20
2022-10-01T23:47:32.491Z,95.30
2022-10-01T23:50:01.985Z,95.20
2022-10-01T23:52:40.798Z,95.20
2022-10-01T23:55:51.133Z,95.10
2022-10-01T23:58:20.534Z,95.20
